Haskells, Indiana
Current Conditions -  °F | °C
As of 8:56 AM on Wednesday 22 Oct 2014 (Local Time) from KVPZ Reporting Station
Clear Clear  
Wind Chill: 38°   Ceiling: Unl
Heat Index: 42°   Visibility: 10mi
Dew Point: 38°   Wind: 6mph
Humidity: 85%   Direction: 90°E
Pressure: 30.36"   Gusts: NA
Location:  41.4092°N, 86.8646°W
Report Text: KVPZ 221356Z AUTO 09005KT 10SM CLR 06/03 A3036 RMK AO2 SLP286 T00560033 TSNO
Loading
Personal Weather Stations






























Interactive Weather Map
Tropical Storm Tracking
New forecast layout! Learn more

10-Day Weather Forecast

Advertisements
Track Severe Weather on mobile